Time;durP1;ratioP1;P1;durP2;ratioP2;P2;SDS_P1;SDS_P2;PMS_P1;PMS_P2;Temp;Humidity;BMP_temperature;BMP_pressure;BME280_temperature;BME280_humidity;BME280_pressure;Samples;Min_cycle;Max_cycle;Signal;HPM_P1;HPM_P2
2023/09/29 00:00:17;;;;;;;11.63;3.42;;;;;;;15.83;75.24;95296.34;5033974;28;20672;-69
2023/09/29 00:02:44;;;;;;;8.07;3.22;;;;;;;15.89;75.27;95314.03;5051883;28;20675;-69
2023/09/29 00:05:10;;;;;;;9.68;3.28;;;;;;;15.88;75.27;95311.59;5051798;28;20179;-69
2023/09/29 00:07:37;;;;;;;8.00;3.47;;;;;;;15.86;75.41;95301.22;5051177;28;20178;-68
2023/09/29 00:10:05;;;;;;;8.57;3.25;;;;;;;15.80;75.11;95302.13;5051674;28;20163;-69
2023/09/29 00:12:30;;;;;;;8.45;3.58;;;;;;;15.77;75.46;95300.75;5051467;28;20179;-68
2023/09/29 00:14:56;;;;;;;10.45;3.63;;;;;;;15.78;75.49;95298.91;5051340;28;20202;-69
2023/09/29 00:17:21;;;;;;;6.95;3.05;;;;;;;15.76;75.70;95306.28;5033458;28;20570;-69
2023/09/29 00:19:46;;;;;;;9.07;3.70;;;;;;;15.75;75.64;95302.81;5050963;28;20182;-68
2023/09/29 00:22:12;;;;;;;9.45;3.05;;;;;;;15.73;75.48;95306.78;5051340;28;20269;-68
2023/09/29 00:24:37;;;;;;;9.20;3.15;;;;;;;15.64;75.85;95295.69;5050905;28;20183;-69
2023/09/29 00:27:03;;;;;;;8.55;3.42;;;;;;;15.62;76.14;95304.91;5051115;28;20719;-68
2023/09/29 00:29:28;;;;;;;8.65;3.60;;;;;;;15.57;76.52;95300.28;5051206;28;20179;-69
2023/09/29 00:31:54;;;;;;;7.72;3.17;;;;;;;15.55;76.54;95305.03;5051001;28;20266;-69
2023/09/29 00:34:20;;;;;;;7.43;3.25;;;;;;;15.47;76.97;95300.03;5051304;28;20179;-68
2023/09/29 00:36:47;;;;;;;11.05;4.15;;;;;;;15.45;77.51;95297.59;5050761;28;20202;-69
2023/09/29 00:39:13;;;;;;;8.35;3.67;;;;;;;15.42;77.40;95308.66;5050902;28;20248;-69
2023/09/29 00:41:40;;;;;;;9.32;3.25;;;;;;;15.40;77.61;95300.13;5033167;28;20628;-68
2023/09/29 00:44:09;;;;;;;7.72;3.63;;;;;;;15.39;77.58;95306.47;5033178;28;20232;-69
2023/09/29 00:46:35;;;;;;;12.40;4.28;;;;;;;15.35;77.46;95296.56;5051053;28;20682;-68
2023/09/29 00:49:01;;;;;;;6.45;3.15;;;;;;;15.32;77.76;95297.00;5051009;28;20183;-69
2023/09/29 00:51:26;;;;;;;6.43;3.40;;;;;;;15.32;77.84;95297.81;5050664;28;20182;-68
2023/09/29 00:53:52;;;;;;;8.18;3.05;;;;;;;15.30;77.96;95299.91;5050861;28;20183;-69
2023/09/29 00:56:18;;;;;;;15.55;3.58;;;;;;;15.28;77.82;95291.38;5050723;28;20194;-68
2023/09/29 00:58:44;;;;;;;8.68;3.28;;;;;;;15.24;77.51;95284.06;5050690;28;20202;-69
2023/09/29 01:01:12;;;;;;;8.10;3.13;;;;;;;15.23;77.79;95299.19;5050805;28;20317;-68
2023/09/29 01:03:37;;;;;;;10.63;3.90;;;;;;;15.18;77.76;95285.00;5050545;28;20175;-69
2023/09/29 01:06:06;;;;;;;5.97;3.65;;;;;;;15.09;78.08;95268.63;5050857;28;20616;-69
2023/09/29 01:08:31;;;;;;;9.38;3.45;;;;;;;15.26;77.97;95296.09;5050501;28;20179;-69
2023/09/29 01:10:57;;;;;;;9.70;3.30;;;;;;;15.23;78.03;95293.06;5050509;28;20248;-69
2023/09/29 01:13:22;;;;;;;6.40;3.50;;;;;;;15.21;77.92;95293.31;5050384;28;20167;-69
2023/09/29 01:15:49;;;;;;;9.48;3.28;;;;;;;15.21;77.74;95298.63;5050430;28;20246;-69
2023/09/29 01:18:19;;;;;;;7.25;3.42;;;;;;;15.20;77.85;95294.34;5050392;28;20183;-69
2023/09/29 01:20:44;;;;;;;8.57;3.50;;;;;;;15.16;77.87;95290.53;5049219;28;20577;-69
2023/09/29 01:23:10;;;;;;;10.38;4.05;;;;;;;15.02;78.20;95286.47;5050463;28;20194;-69
2023/09/29 01:25:36;;;;;;;10.02;3.47;;;;;;;15.07;77.98;95295.34;5050304;28;20189;-69
2023/09/29 01:28:07;;;;;;;14.38;3.58;;;;;;;15.06;78.40;95293.72;5050287;28;20187;-69
2023/09/29 01:30:33;;;;;;;14.13;4.50;;;;;;;15.04;78.30;95297.66;5050472;28;20183;-69
2023/09/29 01:32:59;;;;;;;6.78;3.65;;;;;;;14.86;78.46;95274.69;5048787;28;20214;-69
2023/09/29 01:35:25;;;;;;;8.13;3.88;;;;;;;14.88;78.44;95285.84;5050478;28;20195;-69
2023/09/29 01:37:53;;;;;;;8.52;3.15;;;;;;;14.96;78.39;95295.34;5050223;28;20174;-69
2023/09/29 01:40:21;;;;;;;8.43;2.67;;;;;;;14.97;78.40;95296.94;5049871;28;20264;-69
2023/09/29 01:42:46;;;;;;;16.55;3.70;;;;;;;14.95;78.33;95296.38;5050341;28;20713;-69
2023/09/29 01:45:15;;;;;;;4.25;3.10;;;;;;;14.95;78.73;95296.38;5050192;28;20182;-69
2023/09/29 01:47:43;;;;;;;8.80;3.50;;;;;;;14.93;78.63;95293.13;5049245;28;20449;-69
2023/09/29 01:50:10;;;;;;;13.63;3.05;;;;;;;14.96;77.50;95300.66;5049834;28;20182;-69
2023/09/29 01:52:36;;;;;;;5.38;2.80;;;;;;;14.93;77.54;95296.59;5050203;28;20171;-68
2023/09/29 01:55:05;;;;;;;8.80;3.38;;;;;;;14.88;78.04;95296.44;5049721;28;20577;-68
2023/09/29 01:57:30;;;;;;;9.03;3.43;;;;;;;14.84;78.12;95297.97;5049853;28;20301;-69
2023/09/29 01:59:56;;;;;;;9.95;3.13;;;;;;;14.84;78.05;95295.31;5049529;28;20695;-68
2023/09/29 02:02:21;;;;;;;8.43;3.40;;;;;;;14.86;77.73;95298.53;5049879;28;20214;-68
2023/09/29 02:04:47;;;;;;;15.25;3.72;;;;;;;14.86;77.90;95292.44;5049826;28;20980;-69
2023/09/29 02:07:13;;;;;;;11.02;3.03;;;;;;;14.87;77.85;95299.34;5049636;28;20199;-68
2023/09/29 02:09:39;;;;;;;12.75;2.80;;;;;;;14.89;77.78;95305.22;5049136;28;20174;-68
2023/09/29 02:12:06;;;;;;;7.40;3.42;;;;;;;14.87;78.11;95302.00;5045181;28;20189;-68
2023/09/29 02:14:32;;;;;;;4.63;2.70;;;;;;;14.77;77.59;95275.22;5049464;28;20198;-68
2023/09/29 02:16:58;;;;;;;11.77;3.45;;;;;;;14.90;77.69;95302.34;5049632;28;20670;-68
2023/09/29 02:19:24;;;;;;;6.45;3.03;;;;;;;14.89;77.92;95300.72;5049752;28;20576;-69
2023/09/29 02:21:49;;;;;;;10.80;2.95;;;;;;;14.88;78.09;95298.28;5049492;28;20225;-69
2023/09/29 02:24:14;;;;;;;12.68;3.63;;;;;;;14.91;78.36;95300.50;5049582;28;20264;-69
2023/09/29 02:26:41;;;;;;;13.83;3.57;;;;;;;14.90;78.14;95296.22;5049424;28;20183;-69
2023/09/29 02:29:07;;;;;;;7.57;3.20;;;;;;;14.87;77.67;95292.22;5049575;28;20179;-69
2023/09/29 02:31:36;;;;;;;11.65;3.38;;;;;;;14.90;78.11;95298.88;5051213;28;20171;-69
2023/09/29 02:34:01;;;;;;;9.50;3.28;;;;;;;14.88;77.91;95299.09;5053092;28;20695;-68
2023/09/29 02:36:27;;;;;;;6.80;3.03;;;;;;;14.90;78.25;95304.19;5053580;28;20183;-69
2023/09/29 02:38:52;;;;;;;10.63;3.40;;;;;;;14.92;78.48;95302.13;5053253;28;20678;-68
2023/09/29 02:41:18;;;;;;;8.55;3.83;;;;;;;14.95;78.58;95304.34;5053302;28;20199;-69
2023/09/29 02:43:43;;;;;;;7.68;2.90;;;;;;;14.99;78.32;95306.28;5034951;28;20258;-68
2023/09/29 02:46:15;;;;;;;7.55;3.28;;;;;;;15.03;78.19;95309.31;5035067;28;20270;-69
2023/09/29 02:48:44;;;;;;;6.93;2.80;;;;;;;15.06;77.59;95308.84;5052949;28;20174;-68
2023/09/29 02:51:17;;;;;;;7.53;2.88;;;;;;;15.08;77.34;95312.06;5052826;28;20687;-69
2023/09/29 02:53:43;;;;;;;13.98;3.50;;;;;;;15.12;78.03;95317.75;5052804;28;20182;-69
2023/09/29 02:56:10;;;;;;;4.43;2.88;;;;;;;15.10;78.07;95315.31;5052822;28;20190;-69
2023/09/29 02:58:36;;;;;;;12.00;3.95;;;;;;;15.10;78.21;95312.66;5053069;28;20194;-69
2023/09/29 03:01:01;;;;;;;7.05;3.42;;;;;;;15.12;78.17;95317.75;5052820;28;20292;-69
2023/09/29 03:03:26;;;;;;;18.50;3.53;;;;;;;15.16;77.94;95322.34;5052783;28;20175;-69
2023/09/29 03:05:53;;;;;;;4.25;3.30;;;;;;;15.15;77.86;95312.78;5052744;28;20175;-68
2023/09/29 03:08:18;;;;;;;11.30;3.05;;;;;;;15.24;78.44;95318.56;5052935;28;20179;-69
2023/09/29 03:10:44;;;;;;;10.63;3.17;;;;;;;15.28;77.95;95325.84;5052508;28;20172;-69
2023/09/29 03:13:09;;;;;;;8.25;3.00;;;;;;;15.24;77.73;95310.59;5052389;28;20631;-68
2023/09/29 03:15:35;;;;;;;10.20;3.95;;;;;;;15.22;77.43;95312.69;5052496;28;20175;-69
2023/09/29 03:18:01;;;;;;;12.30;3.22;;;;;;;15.33;77.28;95323.31;5052513;28;20242;-69
2023/09/29 03:20:27;;;;;;;9.95;3.20;;;;;;;15.30;77.54;95318.47;5052210;28;20230;-69
2023/09/29 03:22:58;;;;;;;7.80;3.33;;;;;;;15.38;77.36;95319.97;5052470;28;20557;-68
2023/09/29 03:25:23;;;;;;;11.40;4.35;;;;;;;15.22;77.66;95289.59;5052428;28;20267;-69
2023/09/29 03:27:50;;;;;;;12.52;4.40;;;;;;;15.43;77.65;95320.09;5052137;28;20202;-68
2023/09/29 03:30:15;;;;;;;9.10;4.30;;;;;;;15.44;77.37;95317.22;5047345;28;20184;-68
2023/09/29 03:32:42;;;;;;;7.30;3.17;;;;;;;15.37;77.95;95305.91;5052206;28;20219;-69
2023/09/29 03:35:08;;;;;;;11.88;3.45;;;;;;;15.33;77.47;95299.44;5051855;28;20175;-69
2023/09/29 03:37:36;;;;;;;11.98;3.75;;;;;;;15.42;77.62;95321.13;5052626;28;20651;-69
2023/09/29 03:40:09;;;;;;;10.63;4.30;;;;;;;15.39;78.13;95319.72;5052180;28;20199;-69
2023/09/29 03:42:42;;;;;;;8.93;3.83;;;;;;;15.31;77.85;95312.13;5049722;28;20191;-68
2023/09/29 03:45:09;;;;;;;12.07;4.28;;;;;;;15.22;77.62;95324.09;5051787;28;20450;-68
2023/09/29 03:47:34;;;;;;;13.88;3.40;;;;;;;15.22;78.06;95326.75;5051958;28;20236;-69
2023/09/29 03:50:01;;;;;;;9.52;3.88;;;;;;;15.21;78.23;95327.00;5052022;28;20604;-69
2023/09/29 03:52:29;;;;;;;23.75;4.03;;;;;;;15.17;78.32;95323.97;5051883;28;20183;-68
2023/09/29 03:54:55;;;;;;;13.05;4.13;;;;;;;15.12;78.67;95329.16;5052274;28;20178;-68
2023/09/29 03:57:22;;;;;;;11.73;4.55;;;;;;;15.18;78.55;95327.44;5052053;28;20244;-69
2023/09/29 03:59:47;;;;;;;9.13;3.92;;;;;;;15.19;78.31;95319.25;5051970;28;20627;-68
2023/09/29 04:02:13;;;;;;;12.00;3.90;;;;;;;15.23;78.12;95328.34;5051879;28;20253;-69
2023/09/29 04:04:38;;;;;;;16.88;4.10;;;;;;;15.25;78.34;95326.28;5051870;28;20179;-68
2023/09/29 04:07:04;;;;;;;12.25;4.05;;;;;;;15.17;78.20;95316.03;5051777;28;20594;-68
2023/09/29 04:09:30;;;;;;;14.35;3.75;;;;;;;15.13;77.67;95306.09;5051567;28;20558;-69
2023/09/29 04:11:55;;;;;;;19.17;4.53;;;;;;;15.18;77.99;95314.97;5051391;28;20183;-69
2023/09/29 04:14:21;;;;;;;17.70;4.65;;;;;;;15.08;78.25;95312.88;5051547;28;20175;-69
2023/09/29 04:16:46;;;;;;;13.95;4.32;;;;;;;15.11;78.20;95316.94;5051651;28;20262;-68
2023/09/29 04:19:12;;;;;;;15.40;4.40;;;;;;;15.09;78.32;95326.97;5051392;28;20229;-68
2023/09/29 04:21:38;;;;;;;8.60;3.83;;;;;;;15.06;78.40;95322.09;5051458;28;20282;-68
2023/09/29 04:24:04;;;;;;;8.27;3.97;;;;;;;15.09;78.66;95324.31;5051426;28;20274;-68
2023/09/29 04:26:29;;;;;;;13.38;4.95;;;;;;;15.09;78.63;95324.31;5051335;28;20221;-68
2023/09/29 04:28:57;;;;;;;17.40;4.43;;;;;;;15.04;78.75;95325.00;5050725;28;20650;-69
2023/09/29 04:31:22;;;;;;;13.75;4.00;;;;;;;15.02;78.74;95318.28;5050664;28;20624;-68
2023/09/29 04:33:47;;;;;;;32.40;5.45;;;;;;;15.01;79.32;95325.44;5050783;28;20230;-68
2023/09/29 04:36:13;;;;;;;17.40;5.30;;;;;;;14.96;79.23;95320.00;5051184;28;20201;-69
2023/09/29 04:38:41;;;;;;;18.48;4.63;;;;;;;14.99;79.55;95324.03;5051064;28;20183;-68
2023/09/29 04:41:06;;;;;;;13.03;4.87;;;;;;;14.99;79.66;95329.34;5050933;28;20191;-68
2023/09/29 04:43:32;;;;;;;23.88;5.68;;;;;;;15.01;79.49;95337.88;5032742;28;20256;-69
2023/09/29 04:45:57;;;;;;;24.27;5.05;;;;;;;14.99;79.65;95318.75;5032707;28;20664;-69
2023/09/29 04:48:23;;;;;;;18.95;6.05;;;;;;;15.10;79.49;95331.22;5050464;28;20186;-68
2023/09/29 04:50:49;;;;;;;14.45;4.78;;;;;;;15.15;78.86;95334.00;5050796;28;20274;-69
2023/09/29 04:53:14;;;;;;;18.50;4.97;;;;;;;15.19;79.25;95337.00;5050615;28;20179;-68
2023/09/29 04:55:40;;;;;;;17.05;5.30;;;;;;;15.19;79.43;95324.56;5050695;28;20186;-69
2023/09/29 04:58:05;;;;;;;14.55;5.70;;;;;;;15.34;78.50;95343.50;5050452;28;20584;-69
2023/09/29 05:00:31;;;;;;;27.60;6.72;;;;;;;15.42;77.94;95345.00;5050395;28;20207;-68
2023/09/29 05:02:56;;;;;;;44.45;8.13;;;;;;;15.58;77.34;95339.06;5050722;28;20194;-69
2023/09/29 05:05:21;;;;;;;31.27;6.30;;;;;;;15.72;77.13;95344.97;5050551;28;20175;-68
2023/09/29 05:07:47;;;;;;;23.85;5.80;;;;;;;15.83;75.99;95346.78;5050352;28;20167;-69
2023/09/29 05:10:15;;;;;;;29.42;5.70;;;;;;;15.88;75.24;95349.59;5032425;28;20183;-68
2023/09/29 05:12:43;;;;;;;22.33;5.47;;;;;;;16.00;74.39;95350.38;5050196;28;20182;-68
2023/09/29 05:15:09;;;;;;;14.43;4.63;;;;;;;16.21;73.35;95348.97;5050194;28;20313;-69
2023/09/29 05:17:34;;;;;;;13.50;5.13;;;;;;;16.52;72.36;95355.72;5049828;28;20262;-69
2023/09/29 05:20:00;;;;;;;14.45;5.38;;;;;;;16.96;71.27;95348.88;5050008;28;20258;-68
2023/09/29 05:22:25;;;;;;;15.02;4.57;;;;;;;17.56;68.92;95367.78;5049827;28;20200;-69
2023/09/29 05:24:53;;;;;;;14.05;4.82;;;;;;;18.01;66.95;95366.91;5049988;28;20159;-69
2023/09/29 05:27:19;;;;;;;17.63;4.95;;;;;;;18.38;65.89;95362.63;5049738;28;20197;-69
2023/09/29 05:29:44;;;;;;;16.35;5.10;;;;;;;18.77;64.95;95360.75;5049986;28;20246;-68
2023/09/29 05:32:10;;;;;;;16.65;4.97;;;;;;;19.31;63.50;95368.78;5049655;28;20175;-68
2023/09/29 05:34:35;;;;;;;10.35;5.05;;;;;;;19.40;62.93;95367.28;5050128;28;20183;-68
2023/09/29 05:37:01;;;;;;;24.73;5.10;;;;;;;19.45;63.21;95367.34;5049542;28;20175;-68
2023/09/29 05:39:27;;;;;;;15.43;5.88;;;;;;;19.49;63.00;95355.09;5049404;28;20171;-68
2023/09/29 05:41:52;;;;;;;26.13;5.90;;;;;;;19.81;62.16;95376.47;5048566;28;20740;-68
2023/09/29 05:44:18;;;;;;;12.65;5.05;;;;;;;19.84;61.34;95362.59;5048755;28;20181;-68
2023/09/29 05:46:43;;;;;;;21.80;4.53;;;;;;;20.03;61.61;95376.38;5048962;28;20187;-68
2023/09/29 05:49:09;;;;;;;21.60;5.70;;;;;;;20.22;60.77;95380.25;5048930;28;20183;-68
2023/09/29 05:51:36;;;;;;;16.35;5.43;;;;;;;20.47;59.92;95386.84;5048911;28;20297;-69
2023/09/29 05:54:02;;;;;;;22.25;5.35;;;;;;;20.75;58.79;95382.97;5049742;28;20178;-69
2023/09/29 05:56:29;;;;;;;30.65;6.75;;;;;;;21.01;58.38;95379.34;5049681;28;20175;-68
2023/09/29 05:58:55;;;;;;;33.17;5.53;;;;;;;21.15;58.10;95372.41;5049063;28;20210;-68
2023/09/29 06:01:21;;;;;;;20.40;5.25;;;;;;;21.37;57.01;95386.41;5049689;28;20671;-68
2023/09/29 06:03:46;;;;;;;19.17;4.50;;;;;;;21.56;56.90;95383.22;5049428;28;20179;-69
2023/09/29 06:06:11;;;;;;;26.92;5.22;;;;;;;21.68;56.15;95373.84;5050141;28;20258;-69
2023/09/29 06:08:37;;;;;;;19.02;5.70;;;;;;;21.90;55.46;95386.97;5053607;28;20171;-68
2023/09/29 06:11:04;;;;;;;24.48;6.65;;;;;;;21.91;55.10;95388.59;5053876;28;20170;-69
2023/09/29 06:13:29;;;;;;;19.63;5.68;;;;;;;21.74;55.58;95382.69;5053910;28;20567;-69
2023/09/29 06:15:58;;;;;;;18.73;5.32;;;;;;;21.53;55.71;95381.88;5053363;28;20189;-69
2023/09/29 06:18:24;;;;;;;14.60;5.10;;;;;;;21.46;55.68;95376.78;5053611;28;20190;-68
2023/09/29 06:20:50;;;;;;;17.40;5.03;;;;;;;21.41;55.98;95374.09;5053488;28;20199;-69
2023/09/29 06:23:15;;;;;;;21.67;5.07;;;;;;;21.37;56.08;95381.03;5053566;28;20557;-68
2023/09/29 06:25:41;;;;;;;20.27;5.85;;;;;;;21.35;56.31;95382.41;5053509;28;20548;-68
2023/09/29 06:28:07;;;;;;;14.75;5.35;;;;;;;21.29;55.65;95378.88;5053048;28;20206;-68
2023/09/29 06:30:33;;;;;;;15.32;5.35;;;;;;;21.38;54.59;95388.00;5053009;28;20198;-68
2023/09/29 06:32:58;;;;;;;24.50;5.35;;;;;;;21.49;53.81;95380.00;5052853;28;20707;-68
2023/09/29 06:35:23;;;;;;;11.20;5.72;;;;;;;21.61;52.98;95380.56;5035387;28;20207;-69
2023/09/29 06:37:51;;;;;;;16.55;4.07;;;;;;;21.94;51.61;95388.06;5053499;28;20179;-68
2023/09/29 06:40:16;;;;;;;14.50;4.10;;;;;;;22.34;50.71;95387.25;5053313;28;20237;-68
2023/09/29 06:42:42;;;;;;;19.20;5.15;;;;;;;23.11;48.98;95393.19;5053472;28;20203;-69
2023/09/29 06:45:07;;;;;;;18.17;5.60;;;;;;;24.49;47.29;95377.69;5053136;28;20183;-69
2023/09/29 06:47:34;;;;;;;21.48;7.10;;;;;;;26.18;42.80;95381.38;5053191;28;20171;-69
2023/09/29 06:49:59;;;;;;;23.13;7.97;;;;;;;27.16;40.17;95387.41;5052993;28;20202;-68
2023/09/29 06:52:25;;;;;;;14.60;7.75;;;;;;;27.56;39.63;95389.28;5053333;28;20221;-68
2023/09/29 06:54:50;;;;;;;15.52;6.90;;;;;;;28.11;38.22;95387.13;5053039;28;20178;-69
2023/09/29 06:57:16;;;;;;;21.60;7.35;;;;;;;28.39;36.33;95385.13;5052818;28;20338;-69
2023/09/29 06:59:41;;;;;;;16.58;5.80;;;;;;;27.86;37.00;95395.06;5052721;28;20659;-68
2023/09/29 07:02:07;;;;;;;12.43;5.18;;;;;;;27.63;37.11;95381.53;5035114;28;20203;-69
2023/09/29 07:04:32;;;;;;;17.15;4.20;;;;;;;27.45;37.39;95373.53;5052971;28;20181;-68
2023/09/29 07:06:58;;;;;;;18.92;5.28;;;;;;;27.40;38.19;95390.69;5052982;28;20183;-68
2023/09/29 07:09:23;;;;;;;20.35;4.90;;;;;;;27.32;38.40;95384.09;5052883;28;20205;-69
2023/09/29 07:11:49;;;;;;;13.93;5.35;;;;;;;27.53;36.87;95376.31;5052774;28;20650;-68
2023/09/29 07:14:14;;;;;;;17.42;5.55;;;;;;;27.38;37.75;95373.94;5052506;28;20205;-68
2023/09/29 07:16:42;;;;;;;15.50;5.47;;;;;;;27.26;39.21;95379.88;5052497;28;20183;-68
2023/09/29 07:19:09;;;;;;;12.05;5.03;;;;;;;27.07;38.86;95384.59;5052600;28;20175;-68
2023/09/29 07:21:34;;;;;;;18.73;5.07;;;;;;;26.82;39.66;95387.78;5052369;28;20225;-68
2023/09/29 07:23:59;;;;;;;20.45;6.68;;;;;;;26.54;38.92;95387.78;5052434;28;20953;-69
2023/09/29 07:26:26;;;;;;;17.73;5.13;;;;;;;26.06;40.33;95381.03;5052328;28;20175;-69
2023/09/29 07:28:53;;;;;;;13.27;5.07;;;;;;;25.75;41.38;95380.72;5051717;28;20209;-69
2023/09/29 07:31:19;;;;;;;23.38;5.82;;;;;;;25.77;42.31;95381.25;5052224;28;20260;-68
2023/09/29 07:33:44;;;;;;;18.90;5.88;;;;;;;26.32;42.63;95387.63;5052262;28;20305;-68
2023/09/29 07:36:10;;;;;;;18.88;5.20;;;;;;;26.92;40.42;95385.72;5052448;28;20644;-69
2023/09/29 07:38:35;;;;;;;15.70;5.55;;;;;;;27.41;37.74;95389.59;5052405;28;20262;-68
2023/09/29 07:41:04;;;;;;;13.00;4.53;;;;;;;27.63;36.93;95392.34;5051656;28;20741;-68
2023/09/29 07:43:30;;;;;;;12.77;4.40;;;;;;;27.32;36.08;95391.41;5052177;28;20197;-68
2023/09/29 07:45:55;;;;;;;14.35;4.80;;;;;;;26.93;37.40;95400.03;5051049;28;20632;-69
2023/09/29 07:48:21;;;;;;;14.02;3.85;;;;;;;26.75;38.12;95396.28;5050197;28;20205;-68
2023/09/29 07:50:47;;;;;;;10.90;4.20;;;;;;;26.35;38.46;95384.34;5040921;28;20183;-69
2023/09/29 07:53:12;;;;;;;17.20;3.35;;;;;;;26.06;39.35;95389.13;5048168;28;20248;-69
2023/09/29 07:55:38;;;;;;;14.18;4.35;;;;;;;25.83;39.16;95388.94;5034658;28;20592;-69
2023/09/29 07:58:03;;;;;;;9.57;3.92;;;;;;;25.46;39.27;95386.22;5049207;28;20194;-69
2023/09/29 08:00:29;;;;;;;15.15;3.42;;;;;;;25.12;38.92;95379.13;5048789;28;20211;-69
2023/09/29 08:02:54;;;;;;;19.23;4.55;;;;;;;25.00;40.02;95383.31;5050073;28;20215;-68
2023/09/29 08:05:20;;;;;;;9.63;3.67;;;;;;;24.71;40.39;95388.78;5049434;28;20246;-68
2023/09/29 08:07:45;;;;;;;12.07;4.03;;;;;;;24.34;39.78;95357.91;5047802;28;20198;-69
2023/09/29 08:10:11;;;;;;;11.80;3.30;;;;;;;24.26;40.30;95388.16;5049868;28;20179;-69
2023/09/29 08:12:36;;;;;;;7.55;3.53;;;;;;;24.19;40.78;95382.25;5048616;28;20183;-69
2023/09/29 08:15:05;;;;;;;11.30;4.00;;;;;;;24.19;41.80;95382.25;5049660;28;20189;-69
2023/09/29 08:17:31;;;;;;;11.32;3.97;;;;;;;24.29;41.12;95382.22;5049562;28;20209;-69
2023/09/29 08:19:56;;;;;;;14.07;3.67;;;;;;;24.33;40.95;95374.34;5049483;28;20218;-68
2023/09/29 08:22:22;;;;;;;14.13;3.15;;;;;;;24.46;41.04;95381.78;5049499;28;20179;-68
2023/09/29 08:24:47;;;;;;;9.27;2.75;;;;;;;24.44;39.36;95381.25;5048608;28;20224;-68
2023/09/29 08:27:13;;;;;;;17.20;3.53;;;;;;;24.41;39.81;95381.81;5048476;28;20190;-69
2023/09/29 08:29:38;;;;;;;10.20;4.45;;;;;;;24.37;39.89;95378.91;5047645;28;20179;-69
2023/09/29 08:32:03;;;;;;;13.07;3.60;;;;;;;24.38;40.21;95380.50;5047006;28;20265;-67
2023/09/29 08:34:31;;;;;;;9.30;3.53;;;;;;;24.40;40.94;95378.31;5048453;28;20183;-68
2023/09/29 08:36:57;;;;;;;11.73;3.33;;;;;;;24.43;38.96;95376.94;5049175;28;20171;-69
2023/09/29 08:39:23;;;;;;;11.25;3.28;;;;;;;24.26;39.34;95369.31;5049115;28;20656;-68
2023/09/29 08:41:56;;;;;;;9.82;3.55;;;;;;;24.07;39.17;95377.25;5048892;28;20198;-68
2023/09/29 08:44:25;;;;;;;9.82;3.30;;;;;;;24.07;39.94;95371.06;5048398;28;20229;-69
2023/09/29 08:46:52;;;;;;;7.93;3.40;;;;;;;24.10;39.73;95372.41;5048126;28;20195;-69
2023/09/29 08:49:19;;;;;;;10.02;3.33;;;;;;;24.05;38.96;95368.66;5046382;28;20203;-69
2023/09/29 08:51:46;;;;;;;5.20;3.30;;;;;;;23.95;39.90;95349.94;5046996;28;20675;-69
2023/09/29 08:54:13;;;;;;;6.40;2.90;;;;;;;24.15;39.23;95370.44;5047719;28;20230;-69
2023/09/29 08:56:39;;;;;;;16.02;4.13;;;;;;;24.08;38.46;95359.22;5047912;28;20167;-69
2023/09/29 08:59:05;;;;;;;8.65;3.40;;;;;;;23.99;38.46;95364.41;5047754;28;20197;-69
2023/09/29 09:01:31;;;;;;;7.03;2.80;;;;;;;24.03;38.17;95367.34;5047827;28;20199;-69
2023/09/29 09:03:57;;;;;;;15.38;3.53;;;;;;;24.16;39.18;95374.75;5048756;28;20621;-69
2023/09/29 09:06:24;;;;;;;7.63;2.80;;;;;;;24.51;36.96;95370.13;5049763;28;20199;-68
2023/09/29 09:08:51;;;;;;;12.65;2.97;;;;;;;25.04;37.56;95371.69;5049863;28;20195;-69
2023/09/29 09:11:17;;;;;;;15.65;3.10;;;;;;;25.02;34.87;95370.38;5049043;28;20163;-68
2023/09/29 09:13:52;;;;;;;5.10;2.63;;;;;;;24.92;34.77;95373.19;5048948;28;20258;-68
2023/09/29 09:16:20;;;;;;;8.80;2.88;;;;;;;24.81;34.97;95372.50;5047793;28;20165;-69
2023/09/29 09:18:45;;;;;;;11.30;2.63;;;;;;;24.63;34.72;95370.56;5049645;28;20163;-68
2023/09/29 09:21:12;;;;;;;12.20;2.58;;;;;;;24.36;36.30;95366.53;5049361;28;20198;-68
2023/09/29 09:23:37;;;;;;;6.03;3.00;;;;;;;24.27;35.77;95373.59;5048985;28;20225;-68
2023/09/29 09:26:14;;;;;;;9.10;2.80;;;;;;;24.26;36.36;95368.50;5049325;28;20179;-68
2023/09/29 09:28:39;;;;;;;5.85;2.63;;;;;;;24.11;36.55;95350.59;5049408;28;20173;-69
2023/09/29 09:31:05;;;;;;;9.75;2.63;;;;;;;24.23;35.87;95366.38;5048816;28;20175;-68
2023/09/29 09:33:31;;;;;;;11.55;2.60;;;;;;;24.13;35.25;95367.22;5049577;28;21005;-68
2023/09/29 09:36:12;;;;;;;11.20;2.85;;;;;;;24.13;36.16;95361.84;5049680;28;20194;-68
2023/09/29 09:38:37;;;;;;;15.20;3.40;;;;;;;23.93;34.76;95370.13;5050051;28;20206;-68
2023/09/29 09:41:04;;;;;;;8.23;2.45;;;;;;;23.48;35.12;95366.66;5049026;28;20229;-68
2023/09/29 09:43:34;;;;;;;8.63;2.95;;;;;;;23.51;35.27;95365.34;5050294;28;20174;-68
2023/09/29 09:46:03;;;;;;;13.02;3.42;;;;;;;23.45;35.82;95361.81;5049918;28;20270;-68
2023/09/29 09:48:40;;;;;;;13.25;2.95;;;;;;;23.60;36.06;95363.66;5047883;28;20183;-68
2023/09/29 09:51:07;;;;;;;10.88;2.80;;;;;;;23.94;37.02;95345.63;5047849;28;20827;-68
2023/09/29 09:53:36;;;;;;;9.65;3.00;;;;;;;24.36;34.58;95361.13;5048354;28;20183;-68
2023/09/29 09:56:19;;;;;;;10.15;3.00;;;;;;;24.64;34.66;95364.06;5048497;28;20186;-68
2023/09/29 09:58:47;;;;;;;4.80;2.63;;;;;;;24.76;34.58;95353.69;5048069;28;20163;-68
2023/09/29 10:01:12;;;;;;;11.60;3.00;;;;;;;25.05;33.02;95348.25;5030480;28;20198;-68
2023/09/29 10:03:38;;;;;;;7.10;2.33;;;;;;;25.12;33.01;95346.78;5049472;28;20183;-68
2023/09/29 10:06:05;;;;;;;10.40;2.70;;;;;;;25.09;33.15;95347.38;5049960;28;20293;-68
2023/09/29 10:08:30;;;;;;;7.45;3.08;;;;;;;24.90;33.39;95337.66;5049752;28;20182;-68
2023/09/29 10:11:10;;;;;;;13.27;3.00;;;;;;;24.52;33.32;95360.97;5050027;28;20574;-68
2023/09/29 10:13:37;;;;;;;7.60;2.40;;;;;;;24.17;34.56;95348.66;5049443;28;20179;-69
2023/09/29 10:16:05;;;;;;;13.50;3.30;;;;;;;24.08;34.52;95353.84;5049653;28;20186;-69
2023/09/29 10:18:33;;;;;;;9.85;3.17;;;;;;;23.85;34.93;95341.16;5049514;28;20671;-68
2023/09/29 10:21:09;;;;;;;6.75;3.25;;;;;;;23.61;35.71;95344.53;5049480;28;20187;-69
2023/09/29 10:23:45;;;;;;;9.98;2.60;;;;;;;23.57;35.56;95345.38;5049672;28;20171;-69
2023/09/29 10:26:13;;;;;;;7.50;3.00;;;;;;;23.49;36.50;95349.47;5049319;28;20220;-69
2023/09/29 10:28:39;;;;;;;6.93;2.97;;;;;;;23.23;35.58;95340.75;5048978;28;20257;-69
2023/09/29 10:31:15;;;;;;;7.80;2.90;;;;;;;23.12;37.46;95333.81;5049140;28;20254;-68
2023/09/29 10:34:00;;;;;;;17.10;3.55;;;;;;;23.03;36.42;95334.69;5049279;28;20309;-69
2023/09/29 10:36:28;;;;;;;6.95;3.33;;;;;;;22.95;36.03;95311.91;5049414;28;20175;-69
2023/09/29 10:38:57;;;;;;;6.75;2.78;;;;;;;23.08;35.79;95323.91;5049452;28;20178;-69
2023/09/29 10:41:29;;;;;;;9.32;4.15;;;;;;;23.17;35.57;95322.25;5049143;28;20191;-69
2023/09/29 10:44:00;;;;;;;8.73;2.58;;;;;;;23.21;34.98;95331.34;5049421;28;20205;-69
2023/09/29 10:46:26;;;;;;;5.88;2.78;;;;;;;23.19;33.76;95314.69;5041001;28;20258;-69
2023/09/29 10:48:53;;;;;;;7.70;2.60;;;;;;;23.25;33.69;95318.97;5049479;28;20179;-68
2023/09/29 10:51:31;;;;;;;7.15;2.55;;;;;;;23.31;33.82;95317.84;5049148;28;20163;-69
2023/09/29 10:54:07;;;;;;;8.27;2.67;;;;;;;23.33;34.04;95318.38;5052806;28;20178;-69
2023/09/29 10:56:34;;;;;;;7.82;2.33;;;;;;;23.31;34.52;95325.91;5052626;28;20225;-69
2023/09/29 10:59:06;;;;;;;12.68;2.80;;;;;;;23.28;34.03;95307.66;5052327;28;20186;-69
2023/09/29 11:01:33;;;;;;;10.80;2.75;;;;;;;23.31;34.15;95302.53;5052484;28;20195;-69
2023/09/29 11:04:00;;;;;;;9.25;2.45;;;;;;;23.50;34.65;95310.78;5052749;28;20269;-69
2023/09/29 11:06:26;;;;;;;11.75;3.10;;;;;;;23.73;34.34;95309.22;5052674;28;20182;-69
2023/09/29 11:08:57;;;;;;;9.57;2.38;;;;;;;23.77;34.06;95310.28;5052366;28;20163;-69
2023/09/29 11:11:26;;;;;;;9.27;3.47;;;;;;;23.83;34.68;95302.97;5052000;28;20170;-69
2023/09/29 11:13:57;;;;;;;9.30;3.33;;;;;;;23.89;34.15;95297.25;5051840;28;20594;-69
2023/09/29 11:16:28;;;;;;;3.80;2.78;;;;;;;23.92;33.91;95295.88;5052556;28;20175;-69
2023/09/29 11:18:57;;;;;;;9.27;3.28;;;;;;;24.06;34.68;95297.63;5052454;28;20178;-69
2023/09/29 11:21:34;;;;;;;10.70;3.22;;;;;;;24.09;35.00;95296.25;5052413;28;20645;-69
2023/09/29 11:24:10;;;;;;;9.55;3.22;;;;;;;24.05;34.71;95285.25;5052398;28;20182;-69
2023/09/29 11:26:43;;;;;;;10.73;3.13;;;;;;;24.21;34.46;95294.00;5051885;28;20213;-69